Time;durP1;ratioP1;P1;durP2;ratioP2;P2;SDS_P1;SDS_P2;PMS_P1;PMS_P2;Temp;Humidity;BMP_temperature;BMP_pressure;BME280_temperature;BME280_humidity;BME280_pressure;Samples;Min_cycle;Max_cycle;Signal;HPM_P1;HPM_P2
2023/01/16 00:01:18;;;;;;;3.63;1.33;;;;;;;5.51;96.62;98510.34;5023806;28;20475;-61
2023/01/16 00:03:44;;;;;;;7.03;1.47;;;;;;;5.50;96.32;98508.66;5029899;28;20485;-61
2023/01/16 00:06:11;;;;;;;4.80;1.30;;;;;;;5.46;96.14;98512.63;5043792;28;20488;-61
2023/01/16 00:08:38;;;;;;;4.73;1.47;;;;;;;5.41;96.68;98509.59;5043919;28;20473;-61
2023/01/16 00:11:06;;;;;;;4.60;1.33;;;;;;;5.32;96.96;98503.38;5041839;28;20470;-61
2023/01/16 00:13:33;;;;;;;3.83;1.60;;;;;;;5.33;98.16;98506.84;5017914;28;20897;-61
2023/01/16 00:15:59;;;;;;;3.27;1.20;;;;;;;5.34;98.05;98503.22;5004223;28;20834;-61
2023/01/16 00:18:26;;;;;;;3.17;1.83;;;;;;;5.33;98.84;98483.84;5009357;28;20519;-61
2023/01/16 00:20:52;;;;;;;2.20;1.83;;;;;;;5.33;99.67;98483.84;5018857;28;21020;-61
2023/01/16 00:23:19;;;;;;;2.73;1.30;;;;;;;5.30;100.00;98478.03;5004667;28;20452;-61
2023/01/16 00:25:46;;;;;;;4.40;1.83;;;;;;;5.24;100.00;98482.94;5003336;28;21035;-62
2023/01/16 00:28:14;;;;;;;4.00;1.30;;;;;;;5.16;100.00;98455.53;5003655;28;20484;-62
2023/01/16 00:30:43;;;;;;;5.43;1.40;;;;;;;5.04;100.00;98454.91;5010147;28;20491;-62
2023/01/16 00:33:10;;;;;;;4.90;1.43;;;;;;;5.03;100.00;98448.75;5005758;28;20508;-62
2023/01/16 00:35:37;;;;;;;2.20;1.17;;;;;;;5.09;100.00;98447.34;5009460;28;20464;-61
2023/01/16 00:38:03;;;;;;;1.23;1.07;;;;;;;5.08;100.00;98437.72;5021506;28;20450;-62
2023/01/16 00:40:30;;;;;;;3.50;1.23;;;;;;;4.93;100.00;98428.63;5020998;28;20486;-62
2023/01/16 00:42:57;;;;;;;2.50;1.50;;;;;;;5.03;100.00;98443.47;5014152;28;20491;-62
2023/01/16 00:45:25;;;;;;;2.90;1.27;;;;;;;4.98;100.00;98439.59;5003888;28;20472;-62
2023/01/16 00:47:51;;;;;;;2.57;1.00;;;;;;;4.97;100.00;98427.34;5003749;28;20464;-62
2023/01/16 00:50:18;;;;;;;2.80;1.30;;;;;;;5.02;100.00;98422.44;5007773;28;20479;-62
2023/01/16 00:52:45;;;;;;;1.43;0.90;;;;;;;4.94;100.00;98423.19;5015511;28;20452;-62
2023/01/16 00:55:11;;;;;;;1.53;1.00;;;;;;;4.85;100.00;98424.09;5003875;28;20480;-62
2023/01/16 00:57:38;;;;;;;3.70;1.53;;;;;;;4.82;100.00;98419.09;5015228;28;20471;-62
2023/01/16 01:00:06;;;;;;;2.80;0.97;;;;;;;4.82;100.00;98409.31;5019441;28;20498;-62
2023/01/16 01:02:34;;;;;;;1.27;0.87;;;;;;;4.72;100.00;98409.41;5021453;28;20739;-62
2023/01/16 01:05:00;;;;;;;2.00;1.00;;;;;;;4.69;100.00;98391.16;5015206;28;20526;-62
2023/01/16 01:07:27;;;;;;;5.03;1.90;;;;;;;4.91;100.00;98389.03;5009573;28;20482;-62
2023/01/16 01:09:53;;;;;;;1.00;0.90;;;;;;;4.88;100.00;98382.25;5009142;28;20455;-62
2023/01/16 01:12:20;;;;;;;7.57;1.27;;;;;;;5.05;100.00;98382.41;5003063;28;20479;-62
2023/01/16 01:14:47;;;;;;;3.53;1.00;;;;;;;5.14;100.00;98372.69;5022065;28;20483;-62
2023/01/16 01:17:13;;;;;;;2.37;1.40;;;;;;;5.04;100.00;98372.81;5021819;28;20586;-62
2023/01/16 01:19:41;;;;;;;3.90;1.03;;;;;;;4.97;100.00;98375.22;5022980;28;20486;-62
2023/01/16 01:22:08;;;;;;;4.37;1.70;;;;;;;5.10;100.00;98380.13;5028091;28;20482;-62
2023/01/16 01:24:35;;;;;;;5.80;1.37;;;;;;;5.12;100.00;98367.59;5023196;28;20459;-62
2023/01/16 01:27:01;;;;;;;4.30;1.47;;;;;;;5.06;99.62;98352.28;5021903;28;20908;-62
2023/01/16 01:29:28;;;;;;;1.97;1.00;;;;;;;5.05;99.31;98343.53;5022580;28;20470;-62
2023/01/16 01:31:55;;;;;;;3.47;1.20;;;;;;;5.01;99.71;98344.78;5021570;28;20474;-62
2023/01/16 01:34:21;;;;;;;4.10;1.13;;;;;;;5.22;99.95;98351.59;5022428;28;20451;-62
2023/01/16 01:36:49;;;;;;;4.83;1.20;;;;;;;5.11;99.83;98338.59;5020814;28;20578;-62
2023/01/16 01:39:16;;;;;;;2.93;1.30;;;;;;;5.03;99.77;98337.50;5026823;28;20471;-62
2023/01/16 01:41:43;;;;;;;1.77;0.97;;;;;;;4.94;100.00;98334.97;5022362;28;20510;-62
2023/01/16 01:44:43;;;;;;;3.83;1.10;;;;;;;4.85;100.00;98324.28;5021391;28;20483;-62
2023/01/16 01:47:10;;;;;;;1.03;0.80;;;;;;;4.94;100.00;98319.09;5039950;28;20470;-63
2023/01/16 01:49:37;;;;;;;2.07;1.07;;;;;;;4.92;100.00;98313.94;5020730;28;20439;-63
2023/01/16 01:52:07;;;;;;;2.33;1.03;;;;;;;4.86;100.00;98312.72;5026303;28;20485;-63
2023/01/16 01:54:37;;;;;;;2.33;1.10;;;;;;;4.80;100.00;98305.38;5021197;28;20494;-63
2023/01/16 01:57:05;;;;;;;3.20;1.00;;;;;;;4.70;100.00;98273.72;5013936;28;20513;-63
2023/01/16 01:59:34;;;;;;;1.97;1.53;;;;;;;4.72;100.00;98292.91;5028990;28;20486;-63
2023/01/16 02:02:01;;;;;;;2.37;1.30;;;;;;;4.68;100.00;98282.78;5026595;28;20526;-63
2023/01/16 02:04:31;;;;;;;1.40;1.30;;;;;;;4.57;100.00;98278.53;5021386;28;20487;-62
2023/01/16 02:06:59;;;;;;;1.33;1.00;;;;;;;4.65;100.00;98270.69;5005169;28;20491;-62
2023/01/16 02:09:27;;;;;;;4.10;1.10;;;;;;;4.53;100.00;98269.22;5027711;28;20466;-62
2023/01/16 02:11:56;;;;;;;2.70;1.33;;;;;;;4.53;100.00;98264.78;5039893;28;20466;-62
2023/01/16 02:14:24;;;;;;;7.17;1.70;;;;;;;4.48;100.00;98258.28;5024704;28;20483;-61
2023/01/16 02:19:44;;;;;;;2.47;1.00;;;;;;;4.47;100.00;98259.25;5037512;28;20494;-62
2023/01/16 02:22:41;;;;;;;1.97;0.87;;;;;;;4.44;100.00;98243.69;5021938;28;20513;-62
2023/01/16 02:25:39;;;;;;;5.00;1.50;;;;;;;4.40;100.00;98248.44;5037857;28;20576;-62
2023/01/16 02:28:29;;;;;;;1.83;1.17;;;;;;;4.33;100.00;98250.03;5028644;28;20483;-62
2023/01/16 02:31:04;;;;;;;3.43;1.33;;;;;;;4.38;100.00;98247.75;5030276;28;20497;-62
2023/01/16 02:33:40;;;;;;;2.87;1.10;;;;;;;4.44;100.00;98233.91;5039152;28;20446;-61
2023/01/16 02:36:13;;;;;;;3.57;1.20;;;;;;;4.44;100.00;98230.44;5040960;28;20466;-62
2023/01/16 02:38:47;;;;;;;3.27;1.13;;;;;;;4.38;100.00;98223.13;5025426;28;20478;-62
2023/01/16 02:41:18;;;;;;;1.23;1.13;;;;;;;4.38;100.00;98221.31;5020824;28;20471;-62
2023/01/16 02:43:51;;;;;;;4.77;1.20;;;;;;;4.28;100.00;98217.91;5020700;28;20459;-61
2023/01/16 02:46:26;;;;;;;3.00;1.20;;;;;;;4.29;100.00;98211.66;5020787;28;20478;-61
2023/01/16 02:49:00;;;;;;;2.10;1.37;;;;;;;4.27;100.00;98205.66;5021650;28;20443;-61
2023/01/16 02:51:33;;;;;;;2.27;0.90;;;;;;;4.20;100.00;98191.38;5024228;28;20494;-61
2023/01/16 02:54:10;;;;;;;2.00;1.00;;;;;;;4.26;100.00;98199.53;5020561;28;20479;-61
2023/01/16 02:56:41;;;;;;;3.10;1.03;;;;;;;4.18;100.00;98182.75;5013357;28;20505;-62
2023/01/16 02:59:09;;;;;;;4.33;1.20;;;;;;;4.19;100.00;98189.72;5036062;28;20458;-62
2023/01/16 03:01:38;;;;;;;1.43;1.00;;;;;;;4.21;100.00;98179.81;5027091;28;20479;-62
2023/01/16 03:04:06;;;;;;;1.20;1.13;;;;;;;4.15;100.00;98181.25;5020572;28;21113;-62
2023/01/16 03:06:43;;;;;;;1.70;0.80;;;;;;;4.12;100.00;98177.09;5023085;28;20909;-63
2023/01/16 03:09:31;;;;;;;2.23;1.00;;;;;;;4.11;100.00;98172.81;5033754;28;20471;-62
2023/01/16 03:12:15;;;;;;;3.33;1.53;;;;;;;4.08;100.00;98167.81;5019655;28;20529;-62
2023/01/16 03:14:46;;;;;;;3.90;1.40;;;;;;;4.12;100.00;98163.03;5020112;28;20490;-62
2023/01/16 03:17:22;;;;;;;2.33;1.00;;;;;;;4.17;100.00;98165.22;5033625;28;20979;-61
2023/01/16 03:19:58;;;;;;;2.20;1.20;;;;;;;4.13;100.00;98154.97;5018383;28;20451;-62
2023/01/16 03:22:30;;;;;;;2.73;1.00;;;;;;;4.07;100.00;98149.44;5020954;28;20540;-62
2023/01/16 03:25:03;;;;;;;2.33;1.20;;;;;;;3.99;100.00;98149.34;5040462;28;20481;-62
2023/01/16 03:27:41;;;;;;;1.87;0.90;;;;;;;3.94;100.00;98142.72;5028304;28;20510;-62
2023/01/16 03:30:11;;;;;;;2.30;1.07;;;;;;;3.86;100.00;98133.88;5026547;28;20542;-62
2023/01/16 03:32:43;;;;;;;4.63;1.53;;;;;;;3.86;100.00;98136.53;5040954;28;21013;-62
2023/01/16 03:35:15;;;;;;;3.77;1.00;;;;;;;3.88;100.00;98127.44;5040137;28;20501;-61
2023/01/16 03:37:45;;;;;;;2.40;1.73;;;;;;;3.85;100.00;98125.09;5028363;28;21046;-62
2023/01/16 03:40:16;;;;;;;1.13;0.90;;;;;;;3.80;100.00;98134.47;5020180;28;20487;-61
2023/01/16 03:42:46;;;;;;;2.20;1.30;;;;;;;3.81;100.00;98129.03;5020920;28;20435;-62
2023/01/16 03:45:17;;;;;;;2.37;1.23;;;;;;;3.61;100.00;98124.84;5020355;28;20534;-62
2023/01/16 03:47:49;;;;;;;1.40;0.93;;;;;;;3.57;100.00;98124.31;5020851;28;20470;-62
2023/01/16 03:50:19;;;;;;;3.43;1.30;;;;;;;3.44;100.00;98126.47;5019058;28;20470;-62
2023/01/16 03:52:48;;;;;;;2.13;1.13;;;;;;;3.45;100.00;98112.28;5001193;28;20488;-61
2023/01/16 03:55:17;;;;;;;1.40;1.07;;;;;;;3.36;100.00;98106.91;5029654;28;20450;-61
2023/01/16 03:57:46;;;;;;;3.97;1.40;;;;;;;3.41;100.00;98103.03;5024084;28;20459;-61
2023/01/16 04:00:14;;;;;;;3.73;1.50;;;;;;;3.41;100.00;98105.66;5043416;28;20979;-62
2023/01/16 04:02:46;;;;;;;1.50;1.20;;;;;;;3.41;100.00;98095.91;5038488;28;20477;-62
2023/01/16 04:05:16;;;;;;;3.13;1.30;;;;;;;3.37;100.00;98105.13;5015350;28;20454;-62
2023/01/16 04:07:45;;;;;;;3.10;1.67;;;;;;;3.46;100.00;98098.13;5044688;28;20431;-62
2023/01/16 04:10:14;;;;;;;2.47;1.13;;;;;;;3.55;100.00;98089.28;5029850;28;20485;-62
2023/01/16 04:12:44;;;;;;;3.20;1.50;;;;;;;3.64;100.00;98085.75;5027731;28;20485;-62
2023/01/16 04:15:11;;;;;;;1.13;0.93;;;;;;;3.78;100.00;98089.69;5043136;28;20481;-62
2023/01/16 04:17:40;;;;;;;2.67;1.57;;;;;;;3.95;100.00;98083.56;5029075;28;20475;-62
2023/01/16 04:20:10;;;;;;;2.33;1.03;;;;;;;4.05;100.00;98083.50;5023527;28;20554;-62
2023/01/16 04:22:37;;;;;;;5.17;2.13;;;;;;;4.15;100.00;98075.47;5024226;28;20462;-62
2023/01/16 04:25:06;;;;;;;9.03;1.67;;;;;;;4.23;100.00;98080.00;5039451;28;20478;-61
2023/01/16 04:27:33;;;;;;;2.70;1.03;;;;;;;4.30;100.00;98065.16;5040359;28;20497;-61
2023/01/16 04:29:59;;;;;;;1.97;0.80;;;;;;;4.22;100.00;98070.38;5031286;28;20482;-61
2023/01/16 04:32:26;;;;;;;1.30;1.00;;;;;;;4.23;100.00;98062.28;5024484;28;20517;-61
2023/01/16 04:34:52;;;;;;;2.83;1.03;;;;;;;4.46;100.00;98056.50;5023546;28;20493;-62
2023/01/16 04:37:20;;;;;;;1.20;1.10;;;;;;;4.44;100.00;98061.94;5023437;28;20502;-61
2023/01/16 04:39:47;;;;;;;2.90;1.23;;;;;;;4.46;100.00;98051.19;5024062;28;20447;-61
2023/01/16 04:42:14;;;;;;;5.00;1.10;;;;;;;4.52;100.00;98048.78;5028229;28;20488;-61
2023/01/16 04:44:41;;;;;;;3.07;1.63;;;;;;;4.60;100.00;98044.50;5042720;28;20478;-61
2023/01/16 04:47:07;;;;;;;1.63;1.33;;;;;;;4.63;100.00;98039.72;5023824;28;20507;-61
2023/01/16 04:49:34;;;;;;;4.80;1.10;;;;;;;4.65;100.00;98029.84;5023480;28;20454;-61
2023/01/16 04:52:01;;;;;;;3.43;1.00;;;;;;;4.67;100.00;98027.00;5023303;28;20495;-61
2023/01/16 04:54:29;;;;;;;2.77;1.27;;;;;;;4.80;100.00;98019.47;5043005;28;20458;-61
2023/01/16 04:56:55;;;;;;;3.17;1.43;;;;;;;4.67;100.00;98019.06;5029600;28;20522;-61
2023/01/16 04:59:22;;;;;;;4.50;1.20;;;;;;;4.67;100.00;98009.34;5022257;28;20983;-59
2023/01/16 05:01:49;;;;;;;2.53;1.17;;;;;;;4.58;100.00;98006.78;5028220;28;20526;-61
2023/01/16 05:04:17;;;;;;;3.13;0.90;;;;;;;4.65;100.00;97994.59;5022244;28;20482;-61
2023/01/16 05:06:44;;;;;;;2.40;0.90;;;;;;;4.64;100.00;97998.22;5020668;28;20478;-61
2023/01/16 05:09:10;;;;;;;2.20;1.00;;;;;;;4.59;100.00;97987.28;5022744;28;20473;-61
2023/01/16 05:11:38;;;;;;;5.80;1.33;;;;;;;4.43;100.00;97973.00;5021771;28;20521;-62
2023/01/16 05:14:07;;;;;;;3.17;1.10;;;;;;;4.39;100.00;97976.91;5022529;28;20483;-61
2023/01/16 05:16:34;;;;;;;3.13;0.93;;;;;;;4.26;100.00;97973.88;5022292;28;20494;-61
2023/01/16 05:19:01;;;;;;;7.20;1.30;;;;;;;4.01;100.00;97968.47;5020455;28;20882;-61
2023/01/16 05:21:28;;;;;;;5.33;1.20;;;;;;;3.84;100.00;97966.69;5020246;28;20479;-61
2023/01/16 05:23:54;;;;;;;1.03;0.93;;;;;;;3.74;100.00;97959.66;5023013;28;20443;-61
2023/01/16 05:26:21;;;;;;;2.30;1.50;;;;;;;3.68;100.00;97952.34;5018194;28;20490;-61
2023/01/16 05:28:49;;;;;;;7.00;2.03;;;;;;;3.56;100.00;97941.19;5024717;28;20455;-61
2023/01/16 05:31:16;;;;;;;1.80;1.10;;;;;;;3.48;100.00;97938.47;5031898;28;20645;-61
2023/01/16 05:33:42;;;;;;;3.70;2.17;;;;;;;3.44;100.00;97931.84;5036706;28;20497;-61
2023/01/16 05:36:09;;;;;;;5.23;1.17;;;;;;;3.33;100.00;97926.78;5021552;28;20503;-61
2023/01/16 05:38:36;;;;;;;2.17;1.10;;;;;;;3.28;100.00;97932.56;5022795;28;20513;-62
2023/01/16 05:41:02;;;;;;;2.50;1.00;;;;;;;3.31;100.00;97926.94;5019557;28;20486;-63
2023/01/16 05:43:29;;;;;;;3.80;1.20;;;;;;;3.30;100.00;97929.72;5018133;28;20487;-60
2023/01/16 05:45:57;;;;;;;2.20;1.43;;;;;;;3.36;100.00;97919.38;5020530;28;20816;-59
2023/01/16 05:48:24;;;;;;;3.07;1.00;;;;;;;3.46;100.00;97921.97;5021592;28;20458;-59
2023/01/16 05:50:50;;;;;;;4.67;0.90;;;;;;;3.41;100.00;97910.19;5031865;28;20600;-59
2023/01/16 05:53:17;;;;;;;4.67;1.23;;;;;;;3.29;100.00;97906.97;5038835;28;20452;-60
2023/01/16 05:55:45;;;;;;;1.37;1.17;;;;;;;3.25;100.00;97902.97;5020991;28;20725;-59
2023/01/16 05:58:13;;;;;;;1.67;1.57;;;;;;;3.25;100.00;97897.69;5030873;28;20454;-60
2023/01/16 06:00:40;;;;;;;1.67;0.90;;;;;;;3.25;100.00;97900.34;5020412;28;20467;-59
2023/01/16 06:03:09;;;;;;;2.47;1.00;;;;;;;3.26;100.00;97886.13;5021224;28;20501;-59
2023/01/16 06:05:36;;;;;;;1.83;1.13;;;;;;;3.39;100.00;97884.75;5019187;28;21071;-62
2023/01/16 06:08:02;;;;;;;2.73;1.20;;;;;;;3.54;100.00;97871.00;5021666;28;20472;-64
2023/01/16 06:10:29;;;;;;;1.93;1.33;;;;;;;3.57;100.00;97871.50;5020423;28;20513;-60
2023/01/16 06:12:56;;;;;;;3.07;1.00;;;;;;;3.52;100.00;97865.03;5025309;28;20518;-61
2023/01/16 06:15:22;;;;;;;2.53;1.43;;;;;;;3.45;100.00;97866.63;5021574;28;20466;-60
2023/01/16 06:17:50;;;;;;;0.63;0.60;;;;;;;3.59;100.00;97866.06;5032154;28;20434;-60
2023/01/16 06:20:18;;;;;;;1.87;1.17;;;;;;;3.56;100.00;97855.84;5022997;28;20940;-61
2023/01/16 06:22:45;;;;;;;5.20;1.27;;;;;;;3.80;100.00;97852.47;5021933;28;20467;-61
2023/01/16 06:25:12;;;;;;;1.30;0.90;;;;;;;3.79;100.00;97855.31;5020232;28;20479;-61
2023/01/16 06:27:38;;;;;;;3.50;1.63;;;;;;;3.77;100.00;97834.31;5021011;28;20513;-60
2023/01/16 06:30:07;;;;;;;3.50;1.47;;;;;;;3.68;100.00;97830.81;5022096;28;20537;-61
2023/01/16 06:32:33;;;;;;;1.47;1.17;;;;;;;3.66;100.00;97834.56;5040359;28;20478;-61
2023/01/16 06:35:00;;;;;;;1.70;1.10;;;;;;;3.50;100.00;97833.47;5040076;28;20485;-61
2023/01/16 06:37:28;;;;;;;2.13;1.17;;;;;;;3.49;100.00;97828.34;5039991;28;20509;-61
2023/01/16 06:39:56;;;;;;;2.10;1.60;;;;;;;3.42;100.00;97827.31;5041098;28;20470;-63
2023/01/16 06:42:23;;;;;;;8.57;1.67;;;;;;;3.35;100.00;97817.41;5034104;28;20488;-61
2023/01/16 06:44:50;;;;;;;1.60;1.00;;;;;;;3.21;100.00;97812.66;5015395;28;20521;-61
2023/01/16 06:47:16;;;;;;;2.13;1.20;;;;;;;3.16;100.00;97807.84;5020062;28;20574;-61
2023/01/16 06:49:43;;;;;;;2.20;1.50;;;;;;;3.15;100.00;97811.47;5020075;28;20457;-61
2023/01/16 06:52:09;;;;;;;3.10;1.47;;;;;;;3.22;100.00;97795.00;5032158;28;20604;-62
2023/01/16 06:54:37;;;;;;;1.23;1.13;;;;;;;3.16;100.00;97799.06;5040515;28;20512;-61
2023/01/16 06:57:04;;;;;;;3.00;1.23;;;;;;;3.13;100.00;97800.22;5039194;28;20474;-62
2023/01/16 06:59:31;;;;;;;2.23;1.33;;;;;;;3.14;100.00;97793.97;5040399;28;20458;-62
2023/01/16 07:01:57;;;;;;;1.37;1.10;;;;;;;3.11;100.00;97794.28;5040538;28;20490;-62
2023/01/16 07:04:24;;;;;;;1.40;1.17;;;;;;;3.25;100.00;97794.72;5022079;28;20514;-62
2023/01/16 07:06:51;;;;;;;2.93;1.10;;;;;;;3.23;100.00;97786.94;5027573;28;20481;-62
2023/01/16 07:09:17;;;;;;;1.10;0.90;;;;;;;3.23;100.00;97778.16;5041164;28;20452;-62
2023/01/16 07:11:45;;;;;;;10.53;1.63;;;;;;;3.13;100.00;97770.38;5037864;28;20481;-62
2023/01/16 07:22:38;;;;;;;1.17;1.00;;;;;;;3.35;100.00;97735.53;5001034;28;20494;-62
2023/01/16 07:25:08;;;;;;;1.80;1.13;;;;;;;3.33;100.00;97737.50;5005609;28;20569;-62
2023/01/16 07:27:36;;;;;;;3.23;1.60;;;;;;;3.37;100.00;97732.72;5013782;28;20526;-62
2023/01/16 07:30:03;;;;;;;5.33;1.70;;;;;;;3.50;100.00;97732.28;5002852;28;20479;-62
2023/01/16 07:32:30;;;;;;;1.40;1.30;;;;;;;3.47;100.00;97727.31;4984706;28;20484;-62
2023/01/16 07:34:56;;;;;;;2.03;1.30;;;;;;;3.56;100.00;97719.28;5001465;28;20507;-62
2023/01/16 07:37:23;;;;;;;2.67;1.57;;;;;;;3.54;100.00;97710.69;5024514;28;20855;-62
2023/01/16 07:39:50;;;;;;;1.90;1.10;;;;;;;3.53;100.00;97710.84;5021911;28;20505;-62
2023/01/16 07:42:16;;;;;;;2.30;1.03;;;;;;;3.45;100.00;97703.69;5000534;28;20503;-62
2023/01/16 07:44:44;;;;;;;2.70;1.10;;;;;;;3.68;100.00;97701.34;5004098;28;20495;-62
2023/01/16 07:47:12;;;;;;;2.03;1.20;;;;;;;3.68;100.00;97693.41;5021424;28;20551;-62
2023/01/16 07:49:39;;;;;;;1.93;1.50;;;;;;;3.71;100.00;97687.78;5022761;28;20473;-62
2023/01/16 07:52:05;;;;;;;1.90;1.80;;;;;;;3.77;100.00;97694.25;5024193;28;20479;-61
2023/01/16 07:54:35;;;;;;;2.50;1.40;;;;;;;3.75;100.00;97683.03;5024033;28;20469;-62
2023/01/16 07:57:02;;;;;;;1.53;1.43;;;;;;;3.82;100.00;97685.81;5020760;28;20506;-61
2023/01/16 07:59:28;;;;;;;4.90;1.20;;;;;;;3.88;100.00;97680.72;5002178;28;20451;-61
2023/01/16 08:01:56;;;;;;;2.47;1.50;;;;;;;3.91;100.00;97671.66;5023191;28;20506;-61
2023/01/16 08:04:23;;;;;;;2.00;1.30;;;;;;;3.89;100.00;97661.25;5007520;28;20571;-61
2023/01/16 08:06:50;;;;;;;1.20;1.10;;;;;;;3.90;100.00;97652.31;5010284;28;20510;-61
2023/01/16 08:09:16;;;;;;;2.70;1.73;;;;;;;3.87;100.00;97650.03;5004201;28;20459;-61
2023/01/16 08:11:46;;;;;;;2.60;1.37;;;;;;;3.97;100.00;97644.56;5003183;28;20510;-61
2023/01/16 08:14:14;;;;;;;2.50;1.50;;;;;;;4.11;100.00;97641.31;5026788;28;20478;-61
2023/01/16 08:16:40;;;;;;;1.97;1.30;;;;;;;4.11;100.00;97627.22;5042517;28;20582;-62
2023/01/16 08:19:08;;;;;;;3.10;1.77;;;;;;;3.98;100.00;97621.63;5042060;28;20450;-61
2023/01/16 08:21:35;;;;;;;4.30;2.07;;;;;;;3.98;100.00;97613.69;5027384;28;20502;-61
2023/01/16 08:24:02;;;;;;;1.70;1.27;;;;;;;4.06;100.00;97608.38;5023124;28;20466;-61
2023/01/16 08:26:29;;;;;;;1.60;1.50;;;;;;;4.22;100.00;97605.75;5035317;28;20473;-61
2023/01/16 08:28:55;;;;;;;1.57;1.40;;;;;;;4.09;100.00;97597.50;5042316;28;20458;-61
2023/01/16 08:31:22;;;;;;;3.17;1.60;;;;;;;4.31;100.00;97596.00;5042755;28;20478;-61
2023/01/16 08:33:49;;;;;;;3.10;1.40;;;;;;;4.21;100.00;97580.31;5042337;28;20461;-61
2023/01/16 08:36:20;;;;;;;4.40;1.87;;;;;;;4.26;100.00;97572.69;5035563;28;20563;-61
2023/01/16 08:38:47;;;;;;;2.00;1.60;;;;;;;4.48;100.00;97568.53;5025993;28;20432;-61
2023/01/16 08:52:08;;;;;;;1.80;1.23;;;;;;;4.50;100.00;97540.09;5022574;28;20485;-61
2023/01/16 08:54:37;;;;;;;2.93;1.87;;;;;;;4.43;100.00;97522.44;5022642;28;20479;-61
2023/01/16 08:57:04;;;;;;;4.17;1.47;;;;;;;4.38;100.00;97527.41;5025079;28;20570;-61
2023/01/16 08:59:33;;;;;;;2.03;1.83;;;;;;;4.41;100.00;97525.25;5024953;28;20818;-61
2023/01/16 09:02:00;;;;;;;7.60;1.83;;;;;;;4.54;100.00;97522.06;5035590;28;20484;-61
2023/01/16 09:04:27;;;;;;;1.47;1.37;;;;;;;4.75;100.00;97508.25;5035190;28;20470;-61
2023/01/16 09:06:54;;;;;;;2.97;1.60;;;;;;;4.59;100.00;97508.34;5002486;28;20511;-61
2023/01/16 09:09:22;;;;;;;4.17;1.97;;;;;;;4.63;100.00;97491.94;5015662;28;20519;-61
2023/01/16 09:14:39;;;;;;;3.00;1.60;;;;;;;4.87;99.61;97490.19;5023571;28;20498;-62
2023/01/16 09:17:06;;;;;;;2.70;1.17;;;;;;;4.82;99.46;97498.63;5040467;28;20482;-61
2023/01/16 09:19:33;;;;;;;2.47;1.33;;;;;;;4.81;98.98;97497.00;5031791;28;20477;-61
2023/01/16 09:22:00;;;;;;;3.30;1.90;;;;;;;4.82;99.50;97476.66;5021269;28;20510;-61
2023/01/16 09:24:28;;;;;;;3.77;1.93;;;;;;;4.78;98.96;97481.47;5021769;28;20483;-61
2023/01/16 09:26:54;;;;;;;2.17;1.63;;;;;;;4.85;98.07;97455.94;5021517;28;20471;-61
2023/01/16 09:29:21;;;;;;;3.90;1.77;;;;;;;4.97;98.14;97456.38;5022303;28;21203;-61
2023/01/16 09:31:48;;;;;;;2.83;1.80;;;;;;;5.02;97.24;97447.94;5021047;28;20577;-61
2023/01/16 09:34:14;;;;;;;1.67;1.53;;;;;;;4.99;97.04;97437.69;5022205;28;20448;-61
2023/01/16 09:36:41;;;;;;;1.93;1.53;;;;;;;5.11;96.53;97430.16;5032907;28;20529;-61
2023/01/16 09:39:08;;;;;;;3.97;1.90;;;;;;;4.94;96.09;97427.59;5040505;28;20940;-61
2023/01/16 09:44:25;;;;;;;5.63;2.07;;;;;;;5.01;95.42;97433.03;5021164;28;21101;-62
2023/01/16 09:46:52;;;;;;;3.10;1.67;;;;;;;4.99;95.84;97427.09;5030098;28;21061;-61
2023/01/16 09:49:21;;;;;;;3.30;1.97;;;;;;;5.00;94.51;97431.38;5040025;28;20434;-61
2023/01/16 10:00:08;;;;;;;5.13;1.77;;;;;;;5.15;94.48;97392.53;5021100;28;20450;-61
2023/01/16 10:02:35;;;;;;;3.80;1.47;;;;;;;5.14;94.42;97390.06;5020605;28;20468;-61
2023/01/16 10:05:05;;;;;;;4.47;2.00;;;;;;;4.95;95.24;97370.19;5023915;28;20451;-61
2023/01/16 10:07:54;;;;;;;2.97;1.80;;;;;;;4.95;96.13;97371.03;5041019;28;20501;-61
2023/01/16 10:10:41;;;;;;;2.83;1.20;;;;;;;5.08;96.29;97367.78;5033291;28;20458;-61
2023/01/16 10:13:31;;;;;;;3.03;1.80;;;;;;;4.93;100.00;97357.16;5032050;28;20524;-61
2023/01/16 10:16:05;;;;;;;2.40;1.50;;;;;;;4.68;100.00;97345.88;5022454;28;20481;-62
2023/01/16 10:18:42;;;;;;;3.30;1.97;;;;;;;4.63;100.00;97341.09;5041079;28;20461;-62
2023/01/16 10:21:23;;;;;;;2.90;1.40;;;;;;;4.65;100.00;97327.69;5023747;28;20489;-62
2023/01/16 10:23:54;;;;;;;3.07;1.50;;;;;;;4.65;100.00;97320.59;5021444;28;20471;-61
2023/01/16 10:26:28;;;;;;;3.47;1.30;;;;;;;4.77;100.00;97313.06;5021311;28;20483;-61
2023/01/16 10:29:02;;;;;;;3.97;1.70;;;;;;;4.71;100.00;97297.91;5040244;28;20488;-61
2023/01/16 10:31:32;;;;;;;7.00;1.83;;;;;;;4.93;100.00;97298.06;5027483;28;20482;-62
2023/01/16 10:34:03;;;;;;;3.00;1.93;;;;;;;4.91;100.00;97292.94;5021881;28;20443;-62
2023/01/16 10:36:32;;;;;;;1.77;1.00;;;;;;;4.86;100.00;97285.53;5020147;28;20543;-61
2023/01/16 10:39:00;;;;;;;7.73;1.70;;;;;;;5.04;100.00;97271.16;5036131;28;20439;-61
2023/01/16 10:49:55;;;;;;;3.50;1.40;;;;;;;5.24;98.67;97256.44;5030283;28;20457;-62
2023/01/16 10:52:22;;;;;;;3.80;1.13;;;;;;;5.31;97.46;97245.09;5032034;28;20502;-61
2023/01/16 10:54:48;;;;;;;3.53;1.00;;;;;;;5.26;96.33;97241.16;5022183;28;20470;-61
2023/01/16 10:57:17;;;;;;;1.33;1.13;;;;;;;5.30;95.40;97219.63;5040067;28;20536;-61
2023/01/16 10:59:46;;;;;;;4.07;1.67;;;;;;;5.51;95.56;97230.31;5039224;28;20462;-61
2023/01/16 11:02:18;;;;;;;3.33;1.40;;;;;;;5.29;94.99;97216.13;5038704;28;20525;-61
2023/01/16 11:04:45;;;;;;;3.77;1.30;;;;;;;5.51;95.22;97210.94;5040084;28;20986;-61
2023/01/16 11:07:17;;;;;;;2.37;1.33;;;;;;;5.61;94.41;97204.34;5038874;28;20482;-61
2023/01/16 11:09:45;;;;;;;2.10;1.50;;;;;;;5.49;93.34;97200.53;5039050;28;20446;-61
2023/01/16 11:20:45;;;;;;;3.67;1.20;;;;;;;5.78;90.23;97167.88;5031739;28;20497;-61
2023/01/16 11:23:17;;;;;;;3.33;1.00;;;;;;;5.82;89.06;97170.97;5020330;28;20444;-61
2023/01/16 11:25:45;;;;;;;1.97;0.80;;;;;;;5.84;89.83;97159.16;5019847;28;20490;-61
2023/01/16 11:28:16;;;;;;;4.20;1.20;;;;;;;5.68;89.36;97161.19;5020275;28;20502;-61
2023/01/16 11:30:46;;;;;;;0.97;0.90;;;;;;;5.75;88.80;97144.38;5016642;28;20502;-62
2023/01/16 11:33:15;;;;;;;0.90;0.60;;;;;;;5.88;88.50;97126.97;5001060;28;20443;-62
2023/01/16 11:35:45;;;;;;;4.00;1.60;;;;;;;5.93;88.39;97137.84;5013842;28;20475;-61
2023/01/16 11:38:14;;;;;;;1.43;0.93;;;;;;;5.95;87.73;97128.66;5019930;28;20881;-61
2023/01/16 11:40:46;;;;;;;3.23;1.20;;;;;;;6.04;87.04;97132.06;5020633;28;20856;-61
2023/01/16 11:46:03;;;;;;;2.10;1.23;;;;;;;5.78;87.37;97106.91;5037765;28;20478;-61
2023/01/16 11:48:35;;;;;;;1.20;1.10;;;;;;;5.94;87.13;97108.47;5031085;28;20931;-61
2023/01/16 11:51:03;;;;;;;1.03;0.77;;;;;;;5.76;87.40;97090.34;5019034;28;20512;-61
2023/01/16 11:53:32;;;;;;;3.37;1.00;;;;;;;5.72;87.66;97089.06;5022180;28;20459;-61
2023/01/16 11:56:13;;;;;;;2.10;0.93;;;;;;;5.64;88.69;97092.69;5036957;28;20486;-61
2023/01/16 11:58:48;;;;;;;2.47;0.90;;;;;;;5.54;89.03;97099.25;5034184;28;20510;-61
2023/01/16 12:01:21;;;;;;;1.10;0.80;;;;;;;5.43;88.93;97082.03;5026647;28;20513;-61
2023/01/16 12:03:59;;;;;;;2.73;2.20;;;;;;;5.52;90.37;97072.97;5019818;28;20463;-61
2023/01/16 12:06:41;;;;;;;1.40;0.80;;;;;;;5.41;90.65;97068.16;5031467;28;20481;-61
2023/01/16 12:09:29;;;;;;;0.80;0.77;;;;;;;5.27;91.09;97049.44;5039950;28;20509;-61
2023/01/16 12:15:12;;;;;;;0.70;0.50;;;;;;;5.20;93.59;97059.13;5030491;28;20477;-61
2023/01/16 12:17:55;;;;;;;1.40;0.93;;;;;;;5.22;94.27;97054.47;5042322;28;20442;-61
2023/01/16 12:20:29;;;;;;;1.40;0.90;;;;;;;5.26;94.87;97057.59;5041560;28;20481;-61
2023/01/16 12:23:25;;;;;;;0.93;0.60;;;;;;;4.97;96.32;97053.97;5041932;28;20450;-61
2023/01/16 12:25:59;;;;;;;2.90;1.17;;;;;;;4.78;98.10;97030.72;5041804;28;20552;-62
2023/01/16 12:28:35;;;;;;;3.07;1.00;;;;;;;4.77;98.75;97037.00;5042575;28;20469;-62
2023/01/16 12:31:30;;;;;;;1.27;0.93;;;;;;;4.83;100.00;97034.44;5026377;28;20483;-62
2023/01/16 12:34:14;;;;;;;1.20;0.80;;;;;;;4.68;100.00;97018.56;5035201;28;20787;-61
2023/01/16 12:36:47;;;;;;;2.00;0.90;;;;;;;4.79;100.00;97019.94;5041944;28;20477;-62
2023/01/16 12:39:21;;;;;;;0.80;0.77;;;;;;;4.75;100.00;97020.47;5043307;28;20446;-61
2023/01/16 12:44:48;;;;;;;1.80;0.90;;;;;;;4.84;99.40;97001.69;5041416;28;20469;-61
2023/01/16 12:47:27;;;;;;;1.83;1.03;;;;;;;4.90;100.00;96998.28;5035678;28;20478;-61
2023/01/16 12:50:05;;;;;;;1.13;0.90;;;;;;;4.84;97.58;96984.97;5022654;28;20435;-61